createdAt,value
2023-06-16T00:01:17.489Z,12.20
2023-06-16T00:03:50.352Z,10.80
2023-06-16T00:06:20.232Z,10.70
2023-06-16T00:08:48.782Z,10.40
2023-06-16T00:11:17.412Z,10.90
2023-06-16T00:13:46.074Z,10.10
2023-06-16T00:16:13.684Z,9.90
2023-06-16T00:18:44.341Z,10.50
2023-06-16T00:21:13.903Z,10.20
2023-06-16T00:23:43.995Z,11.00
2023-06-16T00:26:10.648Z,9.90
2023-06-16T00:28:39.391Z,11.60
2023-06-16T00:31:06.198Z,10.50
2023-06-16T00:33:33.076Z,10.70
2023-06-16T00:36:00.279Z,11.00
2023-06-16T00:38:28.450Z,10.90
2023-06-16T00:40:55.426Z,11.00
2023-06-16T00:43:22.168Z,11.20
2023-06-16T00:45:51.176Z,11.20
2023-06-16T00:48:18.308Z,11.70
2023-06-16T00:50:45.903Z,11.30
2023-06-16T00:53:13.110Z,11.40
2023-06-16T00:55:41.008Z,12.80
2023-06-16T00:58:08.123Z,11.60
2023-06-16T01:00:36.647Z,12.00
2023-06-16T01:03:09.359Z,12.10
2023-06-16T01:05:37.350Z,14.30
2023-06-16T01:08:22.403Z,13.30
2023-06-16T01:11:01.895Z,13.50
2023-06-16T01:13:33.793Z,12.50
2023-06-16T01:16:03.078Z,11.70
2023-06-16T01:18:32.453Z,10.30
2023-06-16T01:21:11.478Z,11.10
2023-06-16T01:23:56.724Z,10.20
2023-06-16T01:26:26.863Z,10.60
2023-06-16T01:28:55.256Z,8.90
2023-06-16T01:31:24.590Z,7.80
2023-06-16T01:33:52.508Z,7.20
2023-06-16T01:36:20.095Z,7.50
2023-06-16T01:38:47.538Z,7.10
2023-06-16T01:41:16.172Z,7.90
2023-06-16T01:43:44.023Z,8.80
2023-06-16T01:46:12.924Z,7.70
2023-06-16T01:48:39.724Z,7.00
2023-06-16T01:51:07.223Z,7.20
2023-06-16T01:53:34.058Z,7.50
2023-06-16T01:56:01.135Z,6.70
2023-06-16T01:58:30.899Z,6.80
2023-06-16T02:01:28.007Z,6.50
2023-06-16T02:04:21.291Z,6.70
2023-06-16T02:06:53.049Z,6.30
2023-06-16T02:09:23.540Z,6.80
2023-06-16T02:11:52.733Z,6.70
2023-06-16T02:14:21.154Z,8.00
2023-06-16T02:16:51.104Z,8.00
2023-06-16T02:19:18.005Z,8.30
2023-06-16T02:21:44.999Z,8.40
2023-06-16T02:24:11.885Z,8.80
2023-06-16T02:26:38.834Z,8.90
2023-06-16T02:29:05.812Z,7.80
2023-06-16T02:31:32.818Z,8.20
2023-06-16T02:34:00.188Z,8.00
2023-06-16T02:36:27.349Z,8.10
2023-06-16T02:38:54.456Z,8.10
2023-06-16T02:41:21.345Z,7.40
2023-06-16T02:43:48.012Z,8.20
2023-06-16T02:46:15.262Z,8.10
2023-06-16T02:48:41.970Z,7.70
2023-06-16T02:51:09.082Z,7.70
2023-06-16T02:53:36.000Z,8.40
2023-06-16T02:56:03.589Z,9.40
2023-06-16T02:58:31.085Z,9.30
2023-06-16T03:00:58.318Z,7.30
2023-06-16T03:03:37.082Z,7.10
2023-06-16T03:06:20.448Z,7.00
2023-06-16T03:08:47.285Z,9.20
2023-06-16T03:11:14.801Z,11.00
2023-06-16T03:13:47.196Z,12.00
2023-06-16T03:16:14.764Z,11.50
2023-06-16T03:18:41.623Z,10.80
2023-06-16T03:21:08.891Z,10.40
2023-06-16T03:23:41.726Z,11.70
2023-06-16T03:26:08.939Z,10.80
2023-06-16T03:28:53.995Z,11.40
2023-06-16T03:31:21.022Z,12.50
2023-06-16T03:33:47.719Z,11.70
2023-06-16T03:36:15.223Z,10.70
2023-06-16T03:38:42.517Z,11.40
2023-06-16T03:41:09.531Z,11.20
2023-06-16T03:43:36.267Z,13.90
2023-06-16T03:46:03.381Z,12.10
2023-06-16T03:48:32.999Z,12.00
2023-06-16T03:51:02.411Z,12.20
2023-06-16T03:53:29.906Z,12.20
2023-06-16T03:55:56.720Z,12.50
2023-06-16T03:58:24.730Z,12.10
2023-06-16T04:00:51.455Z,11.10
2023-06-16T04:03:18.567Z,11.20
2023-06-16T04:05:45.480Z,10.10
2023-06-16T04:08:12.404Z,10.00
2023-06-16T04:10:39.422Z,8.50
2023-06-16T04:13:06.597Z,8.10
2023-06-16T04:15:35.888Z,8.70
2023-06-16T04:18:03.906Z,9.20
2023-06-16T04:20:31.731Z,9.00
2023-06-16T04:22:58.587Z,8.80
2023-06-16T04:25:25.765Z,9.40
2023-06-16T04:27:53.781Z,8.90
2023-06-16T04:30:22.885Z,8.80
2023-06-16T04:32:50.006Z,9.40
2023-06-16T04:35:18.144Z,9.10
2023-06-16T04:37:45.462Z,9.20
2023-06-16T04:40:13.426Z,8.60
2023-06-16T04:42:40.409Z,10.10
2023-06-16T04:45:08.228Z,8.50
2023-06-16T04:47:41.009Z,9.00
2023-06-16T04:50:09.413Z,9.10
2023-06-16T04:52:37.175Z,9.00
2023-06-16T04:55:07.562Z,8.40
2023-06-16T04:57:36.489Z,8.70
2023-06-16T05:00:06.729Z,8.20
2023-06-16T05:02:34.117Z,8.30
2023-06-16T05:05:03.700Z,9.60
2023-06-16T05:07:32.018Z,9.20
2023-06-16T05:09:59.223Z,10.20
2023-06-16T05:12:26.776Z,9.30
2023-06-16T05:14:53.413Z,9.00
2023-06-16T05:17:20.727Z,10.80
2023-06-16T05:19:47.602Z,11.20
2023-06-16T05:22:14.925Z,11.30
2023-06-16T05:24:42.757Z,10.30
2023-06-16T05:27:09.497Z,9.80
2023-06-16T05:29:36.669Z,11.60
2023-06-16T05:32:04.138Z,11.70
2023-06-16T05:34:30.789Z,12.30
2023-06-16T05:36:58.612Z,12.20
2023-06-16T05:39:26.463Z,12.00
2023-06-16T05:41:53.185Z,12.30
2023-06-16T05:44:19.938Z,10.60
2023-06-16T05:46:47.491Z,11.90
2023-06-16T05:49:16.700Z,11.10
2023-06-16T05:51:43.344Z,11.70
2023-06-16T05:54:10.212Z,11.70
2023-06-16T05:56:37.353Z,10.10
2023-06-16T05:59:05.102Z,10.80
2023-06-16T06:01:33.725Z,11.20
2023-06-16T06:04:00.664Z,10.60
2023-06-16T06:06:28.627Z,11.60
2023-06-16T06:08:55.811Z,11.40
2023-06-16T06:11:22.712Z,11.40
2023-06-16T06:13:49.672Z,12.00
2023-06-16T06:16:16.345Z,12.10
2023-06-16T06:18:43.953Z,11.80
2023-06-16T06:40:32.510Z,8.80
2023-06-16T06:42:59.548Z,8.30
2023-06-16T06:45:42.087Z,8.80
2023-06-16T06:48:08.691Z,8.90
2023-06-16T06:50:35.439Z,9.50
2023-06-16T06:53:03.031Z,8.40
2023-06-16T06:55:29.557Z,9.10
2023-06-16T06:57:56.328Z,7.90
2023-06-16T07:00:22.892Z,8.30
2023-06-16T07:02:49.609Z,7.10
2023-06-16T07:05:16.452Z,7.50
2023-06-16T07:07:43.015Z,8.80
2023-06-16T07:10:11.139Z,8.20
2023-06-16T07:12:37.903Z,8.00
2023-06-16T07:15:05.040Z,7.10
2023-06-16T07:17:32.204Z,6.90
2023-06-16T07:19:58.914Z,6.80
2023-06-16T07:22:25.471Z,6.20
2023-06-16T07:24:51.969Z,5.50
2023-06-16T07:27:18.634Z,5.30
2023-06-16T07:29:45.230Z,6.10
2023-06-16T07:32:11.980Z,5.50
2023-06-16T07:34:39.677Z,6.00
2023-06-16T07:37:06.353Z,5.80
2023-06-16T07:39:33.006Z,5.80
2023-06-16T07:41:59.767Z,5.80
2023-06-16T07:44:26.360Z,5.40
2023-06-16T07:46:53.333Z,5.30
2023-06-16T07:49:20.514Z,5.10
2023-06-16T07:51:47.024Z,4.60
2023-06-16T07:54:13.666Z,4.90
2023-06-16T07:56:41.360Z,5.30
2023-06-16T07:59:07.937Z,5.50
2023-06-16T08:01:34.596Z,6.20
2023-06-16T08:04:01.797Z,6.00
2023-06-16T08:06:29.171Z,6.10
2023-06-16T08:08:56.846Z,6.30
2023-06-16T08:11:23.630Z,5.60
2023-06-16T08:13:50.300Z,6.20
2023-06-16T08:16:17.414Z,5.90
2023-06-16T08:18:44.500Z,5.50
2023-06-16T08:21:11.128Z,5.90
2023-06-16T08:23:37.803Z,5.50
2023-06-16T08:26:06.133Z,5.90
2023-06-16T08:28:32.756Z,5.40
2023-06-16T08:30:59.848Z,5.40
2023-06-16T08:33:26.492Z,5.90
2023-06-16T08:35:53.366Z,5.30
2023-06-16T08:38:20.120Z,5.70
2023-06-16T08:40:47.074Z,5.80
2023-06-16T08:43:15.503Z,5.50
2023-06-16T08:45:44.353Z,5.50
2023-06-16T08:48:14.038Z,5.40
2023-06-16T08:50:41.932Z,5.60
2023-06-16T08:53:11.599Z,5.60
2023-06-16T08:55:41.229Z,6.00
2023-06-16T08:58:12.165Z,6.20
2023-06-16T09:00:42.116Z,6.40
2023-06-16T09:03:08.917Z,6.60
2023-06-16T09:05:36.914Z,6.30
2023-06-16T09:08:06.904Z,6.60
2023-06-16T09:10:34.811Z,6.90
2023-06-16T09:13:01.702Z,6.00
2023-06-16T09:15:28.808Z,6.60
2023-06-16T09:17:57.458Z,6.40
2023-06-16T09:20:24.976Z,6.40
2023-06-16T09:23:01.297Z,6.10
2023-06-16T09:25:33.209Z,6.30
2023-06-16T09:28:08.606Z,6.40
2023-06-16T09:30:36.423Z,6.40
2023-06-16T09:33:03.638Z,6.60
2023-06-16T09:35:31.905Z,6.50
2023-06-16T09:38:01.348Z,5.90
2023-06-16T09:40:32.497Z,6.40
2023-06-16T09:43:04.540Z,5.90
2023-06-16T09:45:32.865Z,6.10
2023-06-16T09:48:09.288Z,7.00
2023-06-16T09:50:37.390Z,6.80
2023-06-16T09:53:06.645Z,5.50
2023-06-16T09:55:41.931Z,6.00
2023-06-16T09:58:09.057Z,5.20
2023-06-16T10:00:36.135Z,5.70
2023-06-16T10:03:08.256Z,5.20
2023-06-16T10:05:37.564Z,5.10
2023-06-16T10:08:06.333Z,4.80
2023-06-16T10:10:34.240Z,4.70
2023-06-16T10:13:05.611Z,4.70
2023-06-16T10:15:38.051Z,4.90
2023-06-16T10:18:13.011Z,4.30
2023-06-16T10:20:40.927Z,4.40
2023-06-16T10:23:09.197Z,4.20
2023-06-16T10:25:36.839Z,4.20
2023-06-16T10:28:08.463Z,4.10
2023-06-16T10:30:36.409Z,3.20
2023-06-16T10:33:16.770Z,3.30
2023-06-16T11:12:37.563Z,2.90
2023-06-16T11:15:04.866Z,2.80
2023-06-16T11:17:33.341Z,2.90
2023-06-16T11:20:02.195Z,58.60
2023-06-16T11:22:36.681Z,2.80
2023-06-16T11:25:05.694Z,2.80
2023-06-16T11:27:33.216Z,2.70
2023-06-16T11:30:03.728Z,2.80
2023-06-16T11:32:35.157Z,3.00
2023-06-16T11:35:02.929Z,3.00
2023-06-16T11:37:52.642Z,3.20
2023-06-16T11:40:27.315Z,2.70
2023-06-16T11:42:59.252Z,3.10
2023-06-16T11:45:32.338Z,2.90
2023-06-16T11:48:02.083Z,3.10
2023-06-16T11:50:29.796Z,3.10
2023-06-16T11:52:57.503Z,2.80
2023-06-16T11:55:28.105Z,3.20
2023-06-16T11:57:59.899Z,2.90
2023-06-16T12:00:27.697Z,3.10
2023-06-16T12:02:55.603Z,2.80
2023-06-16T12:05:26.452Z,3.00
2023-06-16T12:07:53.797Z,3.20
2023-06-16T12:10:23.311Z,3.80
2023-06-16T12:12:51.046Z,3.40
2023-06-16T12:15:20.796Z,3.30
2023-06-16T12:17:48.398Z,3.40
2023-06-16T12:20:17.536Z,3.50
2023-06-16T12:22:55.861Z,3.30
2023-06-16T12:25:23.154Z,3.40
2023-06-16T12:27:51.910Z,3.60
2023-06-16T12:30:19.413Z,3.50
2023-06-16T12:32:46.777Z,3.20
2023-06-16T12:35:24.826Z,3.50
2023-06-16T12:37:51.603Z,3.30
2023-06-16T12:40:29.077Z,3.90
2023-06-16T12:42:55.756Z,3.30
2023-06-16T12:45:22.532Z,3.20
2023-06-16T12:47:49.141Z,3.40
2023-06-16T12:50:15.769Z,4.40
2023-06-16T12:52:42.397Z,3.60
2023-06-16T12:55:09.161Z,3.70
2023-06-16T12:57:35.826Z,3.40
2023-06-16T13:00:03.172Z,4.40
2023-06-16T13:02:30.092Z,3.70
2023-06-16T13:04:56.873Z,3.50
2023-06-16T13:07:24.431Z,3.40
2023-06-16T13:09:51.055Z,3.90
2023-06-16T13:12:17.816Z,3.30
2023-06-16T13:14:45.357Z,3.70
2023-06-16T13:17:12.005Z,3.80
2023-06-16T13:19:40.180Z,3.50
2023-06-16T13:22:07.722Z,3.60
2023-06-16T13:24:34.616Z,3.40
2023-06-16T13:27:01.404Z,3.20
2023-06-16T13:29:28.186Z,3.00
2023-06-16T13:31:54.994Z,3.00
2023-06-16T13:34:21.653Z,3.30
2023-06-16T13:36:48.484Z,2.70
2023-06-16T13:39:15.260Z,3.00
2023-06-16T13:41:42.193Z,3.30
2023-06-16T13:44:10.061Z,2.90
2023-06-16T13:46:36.984Z,3.30
2023-06-16T13:49:03.821Z,3.00
2023-06-16T13:51:30.654Z,3.00
2023-06-16T13:53:57.426Z,3.10
2023-06-16T13:56:24.240Z,3.50
2023-06-16T13:58:50.963Z,3.10
2023-06-16T14:01:17.752Z,3.30
2023-06-16T14:03:44.470Z,3.30
2023-06-16T14:06:13.505Z,3.30
2023-06-16T14:08:40.372Z,3.50
2023-06-16T14:11:07.081Z,3.10
2023-06-16T14:13:33.678Z,3.70
2023-06-16T14:16:00.462Z,3.80
2023-06-16T14:18:27.212Z,3.50
2023-06-16T14:20:53.960Z,4.20
2023-06-16T14:23:20.616Z,4.30
2023-06-16T14:25:48.719Z,3.90
2023-06-16T14:28:15.615Z,3.90
2023-06-16T14:30:42.560Z,4.20
2023-06-16T14:33:11.637Z,3.60
2023-06-16T14:35:39.282Z,3.60
2023-06-16T14:38:06.535Z,3.70
2023-06-16T14:40:33.710Z,3.50
2023-06-16T14:43:00.681Z,3.80
2023-06-16T14:45:27.460Z,3.80
2023-06-16T14:47:54.057Z,3.60
2023-06-16T14:50:22.991Z,3.70
2023-06-16T14:52:49.827Z,3.80
2023-06-16T14:55:16.478Z,3.90
2023-06-16T14:57:43.130Z,3.20
2023-06-16T15:00:10.159Z,3.30
2023-06-16T15:02:37.026Z,3.60
2023-06-16T15:05:04.248Z,3.40
2023-06-16T15:07:30.974Z,3.40
2023-06-16T15:09:57.570Z,3.50
2023-06-16T15:12:24.113Z,3.40
2023-06-16T15:14:50.645Z,3.40
2023-06-16T15:17:17.362Z,3.70
2023-06-16T15:19:43.921Z,3.80
2023-06-16T15:22:10.664Z,3.30
2023-06-16T15:24:37.485Z,3.20
2023-06-16T15:27:04.870Z,3.50
2023-06-16T15:29:31.606Z,3.30
2023-06-16T15:31:58.478Z,3.30
2023-06-16T15:34:25.356Z,3.10
2023-06-16T15:36:52.091Z,3.20
2023-06-16T15:39:19.246Z,3.10
2023-06-16T15:41:46.070Z,3.50
2023-06-16T15:44:12.755Z,3.70
2023-06-16T15:46:39.512Z,3.40
2023-06-16T15:49:06.086Z,3.70
2023-06-16T15:51:32.814Z,3.10
2023-06-16T15:53:59.487Z,3.30
2023-06-16T15:56:26.220Z,3.50
2023-06-16T15:58:52.735Z,3.20
2023-06-16T16:01:19.711Z,3.50
2023-06-16T16:03:46.520Z,3.10
2023-06-16T16:06:13.113Z,3.20
2023-06-16T16:08:39.834Z,3.60
2023-06-16T16:11:07.057Z,3.40
2023-06-16T16:13:33.664Z,3.40
2023-06-16T16:16:00.525Z,3.80
2023-06-16T16:18:27.366Z,3.50
2023-06-16T16:20:54.356Z,3.60
2023-06-16T16:23:20.996Z,3.60
2023-06-16T16:25:47.709Z,3.40
2023-06-16T16:28:14.190Z,3.50
2023-06-16T16:30:41.080Z,3.40
2023-06-16T16:33:07.783Z,3.20
2023-06-16T16:35:34.682Z,3.50
2023-06-16T16:38:01.392Z,3.50
2023-06-16T16:40:28.019Z,3.10
2023-06-16T16:42:56.349Z,3.40
2023-06-16T16:45:23.061Z,3.30
2023-06-16T16:47:50.467Z,4.20
2023-06-16T16:50:17.448Z,3.40
2023-06-16T16:52:44.214Z,4.00
2023-06-16T16:55:22.373Z,3.90
2023-06-16T16:57:57.379Z,3.80
2023-06-16T17:00:24.436Z,3.30
2023-06-16T17:02:51.281Z,3.70
2023-06-16T17:05:18.229Z,3.40
2023-06-16T17:07:45.337Z,3.80
2023-06-16T17:10:12.014Z,3.90
2023-06-16T17:12:38.780Z,4.10
2023-06-16T17:15:06.295Z,3.20
2023-06-16T17:17:33.029Z,3.50
2023-06-16T17:20:00.146Z,3.30
2023-06-16T17:22:27.003Z,3.40
2023-06-16T17:24:53.752Z,3.80
2023-06-16T17:27:20.369Z,3.50
2023-06-16T17:29:46.948Z,3.60
2023-06-16T17:32:13.858Z,3.30
2023-06-16T17:34:40.554Z,3.60
2023-06-16T17:37:07.229Z,3.30
2023-06-16T17:39:33.920Z,3.60
2023-06-16T17:42:00.515Z,3.70
2023-06-16T17:44:27.455Z,4.20
2023-06-16T17:46:54.408Z,4.70
2023-06-16T17:49:23.490Z,4.30
2023-06-16T17:51:51.065Z,4.00
2023-06-16T17:54:18.078Z,4.40
2023-06-16T17:56:45.737Z,4.30
2023-06-16T17:59:12.537Z,3.90
2023-06-16T18:01:40.045Z,4.10
2023-06-16T18:04:06.725Z,4.00
2023-06-16T18:06:33.364Z,3.90
2023-06-16T18:09:00.196Z,3.90
2023-06-16T18:11:27.950Z,3.90
2023-06-16T18:13:54.817Z,4.10
2023-06-16T18:16:22.314Z,4.10
2023-06-16T18:18:49.178Z,3.70
2023-06-16T18:21:16.007Z,3.90
2023-06-16T18:23:42.670Z,4.00
2023-06-16T18:26:09.356Z,4.00
2023-06-16T18:28:36.102Z,3.70
2023-06-16T18:31:03.230Z,3.80
2023-06-16T18:33:30.812Z,3.60
2023-06-16T18:35:57.483Z,4.50
2023-06-16T18:38:24.348Z,3.70
2023-06-16T18:40:51.109Z,4.20
2023-06-16T18:43:24.128Z,4.70
2023-06-16T18:45:52.607Z,4.00
2023-06-16T18:48:19.268Z,4.00
2023-06-16T18:50:46.010Z,4.60
2023-06-16T18:53:13.916Z,3.90
2023-06-16T18:55:43.266Z,4.10
2023-06-16T18:58:10.903Z,4.10
2023-06-16T19:00:37.853Z,4.00
2023-06-16T19:03:04.580Z,4.20
2023-06-16T19:05:32.559Z,3.80
2023-06-16T19:08:00.154Z,4.30
2023-06-16T19:10:26.935Z,4.40
2023-06-16T19:12:53.942Z,4.60
2023-06-16T19:15:22.650Z,4.90
2023-06-16T19:17:50.443Z,4.40
2023-06-16T19:20:17.441Z,4.50
2023-06-16T19:22:44.480Z,4.50
2023-06-16T19:25:12.107Z,4.70
2023-06-16T19:27:39.323Z,4.90
2023-06-16T19:30:07.085Z,4.90
2023-06-16T19:32:35.536Z,4.60
2023-06-16T19:35:02.738Z,4.70
2023-06-16T19:37:33.366Z,4.80
2023-06-16T19:40:00.308Z,5.20
2023-06-16T19:42:27.267Z,5.40
2023-06-16T19:44:55.383Z,5.70
2023-06-16T19:47:23.705Z,5.60
2023-06-16T19:49:51.300Z,5.80
2023-06-16T19:52:18.114Z,5.50
2023-06-16T19:54:44.888Z,5.90
2023-06-16T19:57:12.594Z,5.60
2023-06-16T19:59:39.780Z,5.30
2023-06-16T20:02:06.865Z,5.70
2023-06-16T20:04:38.118Z,5.50
2023-06-16T20:07:06.481Z,6.20
2023-06-16T20:09:33.276Z,5.90
2023-06-16T20:11:59.900Z,6.60
2023-06-16T20:14:27.209Z,6.90
2023-06-16T20:16:56.420Z,7.20
2023-06-16T20:19:24.551Z,7.50
2023-06-16T20:21:51.375Z,7.50
2023-06-16T20:24:18.302Z,8.60
2023-06-16T20:26:45.048Z,8.10
2023-06-16T20:29:11.765Z,8.70
2023-06-16T20:31:39.008Z,9.20
2023-06-16T20:34:08.636Z,9.70
2023-06-16T20:36:38.571Z,10.40
2023-06-16T20:39:09.994Z,10.50
2023-06-16T20:41:38.876Z,10.90
2023-06-16T20:44:07.222Z,11.20
2023-06-16T20:46:33.783Z,11.30
2023-06-16T20:49:00.990Z,11.10
2023-06-16T20:51:29.016Z,10.80
2023-06-16T20:53:58.738Z,10.90
2023-06-16T20:56:26.207Z,11.00
2023-06-16T20:58:52.961Z,11.30
2023-06-16T21:01:19.623Z,10.50
2023-06-16T21:03:52.378Z,10.60
2023-06-16T21:06:19.288Z,10.20
2023-06-16T21:08:50.037Z,10.30
2023-06-16T21:11:16.843Z,11.40
2023-06-16T21:13:43.674Z,10.60
2023-06-16T21:16:12.129Z,10.70
2023-06-16T21:18:39.022Z,10.90
2023-06-16T21:21:05.665Z,10.70
2023-06-16T21:23:32.275Z,11.50
2023-06-16T21:25:58.919Z,9.40
2023-06-16T21:28:26.227Z,9.70
2023-06-16T21:30:52.756Z,11.20
2023-06-16T21:33:20.045Z,9.70
2023-06-16T21:35:46.654Z,10.20
2023-06-16T21:38:19.424Z,10.30
2023-06-16T21:40:46.848Z,11.10
2023-06-16T21:43:13.567Z,11.80
2023-06-16T21:45:40.263Z,11.10
2023-06-16T21:48:06.873Z,11.20
2023-06-16T21:50:33.870Z,10.00
2023-06-16T21:53:00.696Z,9.30
2023-06-16T21:55:27.480Z,9.60
2023-06-16T21:57:54.179Z,10.40
2023-06-16T22:00:21.176Z,10.60
2023-06-16T22:02:48.534Z,11.70
2023-06-16T22:05:15.379Z,11.90
2023-06-16T22:07:42.435Z,11.30
2023-06-16T22:10:11.071Z,12.10
2023-06-16T22:12:38.067Z,11.10
2023-06-16T22:15:06.825Z,11.10
2023-06-16T22:17:37.386Z,10.40
2023-06-16T22:20:11.368Z,9.90
2023-06-16T22:22:39.808Z,9.10
2023-06-16T22:25:06.592Z,9.20
2023-06-16T22:27:33.350Z,9.20
2023-06-16T22:30:00.051Z,9.20
2023-06-16T22:32:28.200Z,8.90
2023-06-16T22:34:55.672Z,9.40
2023-06-16T22:37:22.426Z,9.90
2023-06-16T22:39:49.467Z,9.50
2023-06-16T22:42:18.403Z,9.40
2023-06-16T22:44:45.438Z,9.60
2023-06-16T22:47:13.365Z,9.40
2023-06-16T22:49:40.235Z,9.00
2023-06-16T22:52:07.191Z,9.20
2023-06-16T22:54:33.772Z,9.10
2023-06-16T22:57:00.628Z,9.00
2023-06-16T22:59:27.212Z,8.80
2023-06-16T23:01:56.606Z,9.30
2023-06-16T23:04:23.536Z,9.10
2023-06-16T23:06:51.202Z,9.40
2023-06-16T23:09:17.985Z,9.10
2023-06-16T23:11:44.688Z,9.40
2023-06-16T23:14:11.345Z,8.80
2023-06-16T23:16:38.956Z,9.10
2023-06-16T23:19:05.522Z,8.80
2023-06-16T23:21:32.235Z,8.80
2023-06-16T23:23:58.892Z,8.80
2023-06-16T23:26:28.730Z,9.50
2023-06-16T23:28:55.399Z,9.10
2023-06-16T23:31:22.253Z,9.40
2023-06-16T23:33:49.203Z,9.50
2023-06-16T23:36:17.272Z,9.60
2023-06-16T23:38:45.245Z,9.30
2023-06-16T23:41:12.233Z,9.60
2023-06-16T23:43:39.078Z,9.80
2023-06-16T23:46:05.803Z,9.40
2023-06-16T23:48:32.578Z,9.80
2023-06-16T23:50:59.314Z,9.20
2023-06-16T23:53:26.311Z,9.00
2023-06-16T23:55:53.036Z,9.50
2023-06-16T23:58:19.788Z,9.80
